sensor_id;sensor_type;location;lat;lon;timestamp;pressure;altitude;pressure_sealevel;temperature;humidity
34328;BME280;20588;48.840;10.064;2023-05-03T00:01:00;97244.31;;;6.05;nan
34328;BME280;20588;48.840;10.064;2023-05-03T00:03:29;97247.34;;;6.00;nan
34328;BME280;20588;48.840;10.064;2023-05-03T00:05:56;97244.34;;;5.97;nan
34328;BME280;20588;48.840;10.064;2023-05-03T00:08:22;97245.00;;;5.91;nan
34328;BME280;20588;48.840;10.064;2023-05-03T00:10:48;97253.28;;;5.85;nan
34328;BME280;20588;48.840;10.064;2023-05-03T00:13:14;97257.09;;;5.81;nan
34328;BME280;20588;48.840;10.064;2023-05-03T00:15:40;97255.81;;;5.77;nan
34328;BME280;20588;48.840;10.064;2023-05-03T00:18:06;97253.44;;;5.75;nan
34328;BME280;20588;48.840;10.064;2023-05-03T00:20:32;97250.25;;;5.73;nan
34328;BME280;20588;48.840;10.064;2023-05-03T00:22:58;97252.31;;;5.70;nan
34328;BME280;20588;48.840;10.064;2023-05-03T00:25:24;97247.34;;;5.68;nan
34328;BME280;20588;48.840;10.064;2023-05-03T00:27:50;97252.34;;;5.62;nan
34328;BME280;20588;48.840;10.064;2023-05-03T00:30:16;97248.97;;;5.61;nan
34328;BME280;20588;48.840;10.064;2023-05-03T00:32:44;97252.00;;;5.56;nan
34328;BME280;20588;48.840;10.064;2023-05-03T00:35:10;97240.22;;;5.55;nan
34328;BME280;20588;48.840;10.064;2023-05-03T00:37:36;97239.88;;;5.50;nan
34328;BME280;20588;48.840;10.064;2023-05-03T00:40:02;97242.59;;;5.49;nan
34328;BME280;20588;48.840;10.064;2023-05-03T00:42:31;97243.69;;;5.54;nan
34328;BME280;20588;48.840;10.064;2023-05-03T00:44:58;97236.53;;;5.50;nan
34328;BME280;20588;48.840;10.064;2023-05-03T00:47:24;97237.97;;;5.44;nan
34328;BME280;20588;48.840;10.064;2023-05-03T00:49:50;97242.44;;;5.42;nan
34328;BME280;20588;48.840;10.064;2023-05-03T00:52:17;97237.50;;;5.41;nan
34328;BME280;20588;48.840;10.064;2023-05-03T00:54:44;97233.66;;;5.37;nan
34328;BME280;20588;48.840;10.064;2023-05-03T00:57:10;97234.16;;;5.32;nan
34328;BME280;20588;48.840;10.064;2023-05-03T00:59:37;97243.09;;;5.28;nan
34328;BME280;20588;48.840;10.064;2023-05-03T01:02:04;97240.22;;;5.23;nan
34328;BME280;20588;48.840;10.064;2023-05-03T01:04:30;97245.78;;;5.19;nan
34328;BME280;20588;48.840;10.064;2023-05-03T01:07:07;97250.06;;;5.18;nan
34328;BME280;20588;48.840;10.064;2023-05-03T01:09:55;97237.97;;;5.20;nan
34328;BME280;20588;48.840;10.064;2023-05-03T01:12:56;97237.31;;;5.18;nan
34328;BME280;20588;48.840;10.064;2023-05-03T01:18:25;97240.84;;;5.17;nan
34328;BME280;20588;48.840;10.064;2023-05-03T01:20:54;97234.00;;;5.18;nan
34328;BME280;20588;48.840;10.064;2023-05-03T01:23:27;97237.34;;;5.34;nan
34328;BME280;20588;48.840;10.064;2023-05-03T01:25:55;97236.22;;;5.29;nan
34328;BME280;20588;48.840;10.064;2023-05-03T01:28:21;97226.50;;;5.24;nan
34328;BME280;20588;48.840;10.064;2023-05-03T01:30:49;97219.97;;;5.22;nan
34328;BME280;20588;48.840;10.064;2023-05-03T01:33:32;97223.94;;;5.16;nan
34328;BME280;20588;48.840;10.064;2023-05-03T01:36:20;97227.25;;;5.09;nan
34328;BME280;20588;48.840;10.064;2023-05-03T01:38:48;97227.75;;;5.04;nan
34328;BME280;20588;48.840;10.064;2023-05-03T01:41:17;97235.88;;;5.00;nan
34328;BME280;20588;48.840;10.064;2023-05-03T01:43:46;97232.19;;;4.94;nan
34328;BME280;20588;48.840;10.064;2023-05-03T01:46:12;97225.50;;;4.93;nan
34328;BME280;20588;48.840;10.064;2023-05-03T01:48:38;97233.47;;;4.90;nan
34328;BME280;20588;48.840;10.064;2023-05-03T01:51:05;97220.25;;;4.87;nan
34328;BME280;20588;48.840;10.064;2023-05-03T01:53:31;97226.47;;;4.84;nan
34328;BME280;20588;48.840;10.064;2023-05-03T01:55:57;97224.84;;;4.83;nan
34328;BME280;20588;48.840;10.064;2023-05-03T01:58:23;97219.13;;;4.81;nan
34328;BME280;20588;48.840;10.064;2023-05-03T02:00:49;97213.06;;;4.82;nan
34328;BME280;20588;48.840;10.064;2023-05-03T02:03:15;97207.00;;;4.75;nan
34328;BME280;20588;48.840;10.064;2023-05-03T02:05:41;97206.50;;;4.72;nan
34328;BME280;20588;48.840;10.064;2023-05-03T02:08:07;97211.28;;;4.67;nan
34328;BME280;20588;48.840;10.064;2023-05-03T02:10:33;97202.34;;;4.63;nan
34328;BME280;20588;48.840;10.064;2023-05-03T02:12:59;97208.56;;;4.60;nan
34328;BME280;20588;48.840;10.064;2023-05-03T02:15:25;97213.00;;;4.58;nan
34328;BME280;20588;48.840;10.064;2023-05-03T02:17:51;97212.50;;;4.55;nan
34328;BME280;20588;48.840;10.064;2023-05-03T02:20:19;97215.69;;;4.49;nan
34328;BME280;20588;48.840;10.064;2023-05-03T02:22:45;97215.22;;;4.45;nan
34328;BME280;20588;48.840;10.064;2023-05-03T02:25:11;97207.06;;;4.42;nan
34328;BME280;20588;48.840;10.064;2023-05-03T02:27:37;97219.00;;;4.41;nan
34328;BME280;20588;48.840;10.064;2023-05-03T02:30:03;97210.84;;;4.38;nan
34328;BME280;20588;48.840;10.064;2023-05-03T02:32:29;97204.50;;;4.34;nan
34328;BME280;20588;48.840;10.064;2023-05-03T02:34:55;97210.84;;;4.30;nan
34328;BME280;20588;48.840;10.064;2023-05-03T02:37:21;97222.28;;;4.26;nan
34328;BME280;20588;48.840;10.064;2023-05-03T02:39:47;97220.19;;;4.21;nan
34328;BME280;20588;48.840;10.064;2023-05-03T02:42:13;97214.31;;;4.21;nan
34328;BME280;20588;48.840;10.064;2023-05-03T02:44:39;97215.41;;;4.18;nan
34328;BME280;20588;48.840;10.064;2023-05-03T02:47:05;97219.72;;;4.18;nan
34328;BME280;20588;48.840;10.064;2023-05-03T02:49:32;97217.94;;;4.18;nan
34328;BME280;20588;48.840;10.064;2023-05-03T02:51:58;97209.38;;;4.19;nan
34328;BME280;20588;48.840;10.064;2023-05-03T02:54:24;97212.84;;;4.18;nan
34328;BME280;20588;48.840;10.064;2023-05-03T02:56:50;97215.25;;;4.20;nan
34328;BME280;20588;48.840;10.064;2023-05-03T02:59:16;97218.59;;;4.20;nan
34328;BME280;20588;48.840;10.064;2023-05-03T03:01:42;97217.78;;;4.20;nan
34328;BME280;20588;48.840;10.064;2023-05-03T03:04:10;97205.22;;;4.18;nan
34328;BME280;20588;48.840;10.064;2023-05-03T03:06:36;97211.56;;;4.14;nan
34328;BME280;20588;48.840;10.064;2023-05-03T03:09:02;97216.16;;;4.11;nan
34328;BME280;20588;48.840;10.064;2023-05-03T03:11:29;97214.06;;;4.06;nan
34328;BME280;20588;48.840;10.064;2023-05-03T03:13:56;97201.66;;;4.03;nan
34328;BME280;20588;48.840;10.064;2023-05-03T03:16:22;97205.47;;;3.99;nan
34328;BME280;20588;48.840;10.064;2023-05-03T03:18:48;97214.06;;;3.98;nan
34328;BME280;20588;48.840;10.064;2023-05-03T03:21:14;97211.97;;;3.94;nan
34328;BME280;20588;48.840;10.064;2023-05-03T03:23:40;97224.19;;;3.90;nan
34328;BME280;20588;48.840;10.064;2023-05-03T03:26:06;97219.56;;;3.86;nan
34328;BME280;20588;48.840;10.064;2023-05-03T03:28:32;97218.25;;;3.82;nan
34328;BME280;20588;48.840;10.064;2023-05-03T03:30:58;97216.03;;;3.79;nan
34328;BME280;20588;48.840;10.064;2023-05-03T03:33:24;97209.31;;;3.78;nan
34328;BME280;20588;48.840;10.064;2023-05-03T03:35:50;97212.66;;;3.78;nan
34328;BME280;20588;48.840;10.064;2023-05-03T03:38:16;97209.16;;;3.79;nan
34328;BME280;20588;48.840;10.064;2023-05-03T03:40:42;97213.31;;;3.80;nan
34328;BME280;20588;48.840;10.064;2023-05-03T03:43:08;97216.50;;;3.82;nan
34328;BME280;20588;48.840;10.064;2023-05-03T03:45:35;97217.59;;;3.80;nan
34328;BME280;20588;48.840;10.064;2023-05-03T03:48:01;97215.22;;;3.78;nan
34328;BME280;20588;48.840;10.064;2023-05-03T03:50:27;97218.72;;;3.77;nan
34328;BME280;20588;48.840;10.064;2023-05-03T03:52:53;97219.16;;;3.72;nan
34328;BME280;20588;48.840;10.064;2023-05-03T03:55:19;97215.97;;;3.70;nan
34328;BME280;20588;48.840;10.064;2023-05-03T03:57:45;97217.69;;;3.70;nan
34328;BME280;20588;48.840;10.064;2023-05-03T04:00:11;97218.00;;;3.67;nan
34328;BME280;20588;48.840;10.064;2023-05-03T04:02:38;97217.19;;;3.66;nan
34328;BME280;20588;48.840;10.064;2023-05-03T04:05:04;97223.38;;;3.64;nan
34328;BME280;20588;48.840;10.064;2023-05-03T04:07:31;97220.19;;;3.62;nan
34328;BME280;20588;48.840;10.064;2023-05-03T04:09:57;97222.72;;;3.62;nan
34328;BME280;20588;48.840;10.064;2023-05-03T04:12:23;97238.00;;;3.62;nan
34328;BME280;20588;48.840;10.064;2023-05-03T04:14:50;97235.97;;;3.65;nan
34328;BME280;20588;48.840;10.064;2023-05-03T04:17:16;97228.97;;;3.67;nan
34328;BME280;20588;48.840;10.064;2023-05-03T04:19:42;97236.97;;;3.72;nan
34328;BME280;20588;48.840;10.064;2023-05-03T04:22:09;97234.44;;;3.72;nan
34328;BME280;20588;48.840;10.064;2023-05-03T04:24:35;97241.63;;;3.77;nan
34328;BME280;20588;48.840;10.064;2023-05-03T04:27:04;97242.75;;;3.83;nan
34328;BME280;20588;48.840;10.064;2023-05-03T04:29:30;97243.88;;;3.88;nan
34328;BME280;20588;48.840;10.064;2023-05-03T04:31:56;97242.38;;;3.95;nan
34328;BME280;20588;48.840;10.064;2023-05-03T04:34:22;97247.38;;;4.13;nan
34328;BME280;20588;48.840;10.064;2023-05-03T04:36:49;97250.38;;;4.42;nan
34328;BME280;20588;48.840;10.064;2023-05-03T04:39:15;97249.22;;;4.78;nan
34328;BME280;20588;48.840;10.064;2023-05-03T04:41:41;97248.97;;;5.13;nan
34328;BME280;20588;48.840;10.064;2023-05-03T04:44:08;97258.38;;;5.44;nan
34328;BME280;20588;48.840;10.064;2023-05-03T04:46:34;97264.44;;;5.68;nan
34328;BME280;20588;48.840;10.064;2023-05-03T04:49:00;97263.81;;;5.82;nan
34328;BME280;20588;48.840;10.064;2023-05-03T04:51:26;97263.63;;;5.99;nan
34328;BME280;20588;48.840;10.064;2023-05-03T04:53:53;97264.09;;;6.11;nan
34328;BME280;20588;48.840;10.064;2023-05-03T04:56:19;97260.72;;;6.18;nan
34328;BME280;20588;48.840;10.064;2023-05-03T04:58:51;97266.72;;;6.33;nan
34328;BME280;20588;48.840;10.064;2023-05-03T05:01:18;97269.09;;;6.51;nan
34328;BME280;20588;48.840;10.064;2023-05-03T05:03:44;97269.78;;;6.75;nan
34328;BME280;20588;48.840;10.064;2023-05-03T05:06:10;97270.75;;;6.97;nan
34328;BME280;20588;48.840;10.064;2023-05-03T05:08:37;97274.50;;;7.17;nan
34328;BME280;20588;48.840;10.064;2023-05-03T05:11:03;97277.09;;;7.31;nan
34328;BME280;20588;48.840;10.064;2023-05-03T05:13:30;97270.91;;;7.49;nan
34328;BME280;20588;48.840;10.064;2023-05-03T05:15:56;97283.09;;;7.84;nan
34328;BME280;20588;48.840;10.064;2023-05-03T05:18:22;97282.09;;;8.22;nan
34328;BME280;20588;48.840;10.064;2023-05-03T05:20:48;97282.28;;;8.64;nan
34328;BME280;20588;48.840;10.064;2023-05-03T05:23:14;97269.53;;;9.42;nan
34328;BME280;20588;48.840;10.064;2023-05-03T05:28:08;97269.63;;;12.42;nan
34328;BME280;20588;48.840;10.064;2023-05-03T05:30:34;97270.66;;;13.67;nan
34328;BME280;20588;48.840;10.064;2023-05-03T05:33:00;97286.41;;;14.33;nan
34328;BME280;20588;48.840;10.064;2023-05-03T05:35:26;97281.84;;;14.71;nan
34328;BME280;20588;48.840;10.064;2023-05-03T05:37:53;97273.81;;;15.09;nan
34328;BME280;20588;48.840;10.064;2023-05-03T05:40:19;97284.13;;;15.45;nan
34328;BME280;20588;48.840;10.064;2023-05-03T05:42:46;97280.16;;;15.83;nan
34328;BME280;20588;48.840;10.064;2023-05-03T05:45:13;97289.44;;;16.37;nan
34328;BME280;20588;48.840;10.064;2023-05-03T05:47:39;97284.00;;;16.73;nan
34328;BME280;20588;48.840;10.064;2023-05-03T05:50:05;97282.50;;;16.89;nan
34328;BME280;20588;48.840;10.064;2023-05-03T05:52:32;97282.56;;;17.05;nan
34328;BME280;20588;48.840;10.064;2023-05-03T05:54:58;97280.00;;;17.94;nan
34328;BME280;20588;48.840;10.064;2023-05-03T05:57:24;97288.19;;;19.17;nan
34328;BME280;20588;48.840;10.064;2023-05-03T06:04:43;97285.13;;;19.04;nan
34328;BME280;20588;48.840;10.064;2023-05-03T06:07:09;97287.00;;;18.11;nan
34328;BME280;20588;48.840;10.064;2023-05-03T06:09:35;97287.16;;;17.43;nan
34328;BME280;20588;48.840;10.064;2023-05-03T06:12:01;97284.94;;;17.07;nan
34328;BME280;20588;48.840;10.064;2023-05-03T06:14:28;97288.56;;;17.34;nan
34328;BME280;20588;48.840;10.064;2023-05-03T06:19:20;97281.00;;;21.17;nan
34328;BME280;20588;48.840;10.064;2023-05-03T06:21:47;97281.38;;;22.41;nan
34328;BME280;20588;48.840;10.064;2023-05-03T06:24:13;97282.94;;;22.37;nan
34328;BME280;20588;48.840;10.064;2023-05-03T06:26:46;97279.97;;;22.84;nan
34328;BME280;20588;48.840;10.064;2023-05-03T06:29:12;97281.59;;;23.34;nan
34328;BME280;20588;48.840;10.064;2023-05-03T06:31:38;97274.25;;;22.62;nan
34328;BME280;20588;48.840;10.064;2023-05-03T06:34:07;97275.88;;;21.73;nan
34328;BME280;20588;48.840;10.064;2023-05-03T06:36:33;97280.84;;;21.69;nan
34328;BME280;20588;48.840;10.064;2023-05-03T06:39:00;97276.13;;;21.56;nan
34328;BME280;20588;48.840;10.064;2023-05-03T06:41:30;97279.50;;;20.70;nan
34328;BME280;20588;48.840;10.064;2023-05-03T06:43:57;97278.34;;;21.02;nan
34328;BME280;20588;48.840;10.064;2023-05-03T06:46:24;97278.19;;;21.44;nan
34328;BME280;20588;48.840;10.064;2023-05-03T06:48:50;97271.44;;;22.08;nan
34328;BME280;20588;48.840;10.064;2023-05-03T06:51:24;97265.50;;;22.91;nan
34328;BME280;20588;48.840;10.064;2023-05-03T06:53:54;97269.06;;;23.10;nan
34328;BME280;20588;48.840;10.064;2023-05-03T06:56:21;97272.84;;;22.89;nan
34328;BME280;20588;48.840;10.064;2023-05-03T06:58:48;97271.69;;;21.97;nan
34328;BME280;20588;48.840;10.064;2023-05-03T07:01:14;97267.94;;;21.27;nan
34328;BME280;20588;48.840;10.064;2023-05-03T07:03:40;97269.47;;;20.52;nan
34328;BME280;20588;48.840;10.064;2023-05-03T07:06:07;97261.91;;;19.82;nan
34328;BME280;20588;48.840;10.064;2023-05-03T07:08:33;97268.47;;;18.83;nan
34328;BME280;20588;48.840;10.064;2023-05-03T07:10:59;97270.16;;;18.35;nan
34328;BME280;20588;48.840;10.064;2023-05-03T07:13:25;97269.38;;;18.01;nan
34328;BME280;20588;48.840;10.064;2023-05-03T07:15:51;97267.72;;;16.66;nan
34328;BME280;20588;48.840;10.064;2023-05-03T07:18:17;97268.44;;;16.39;nan
34328;BME280;20588;48.840;10.064;2023-05-03T07:20:43;97265.72;;;15.99;nan
34328;BME280;20588;48.840;10.064;2023-05-03T07:23:09;97266.59;;;15.81;nan
34328;BME280;20588;48.840;10.064;2023-05-03T07:25:35;97264.25;;;15.21;nan
34328;BME280;20588;48.840;10.064;2023-05-03T07:28:01;97271.59;;;15.24;nan
34328;BME280;20588;48.840;10.064;2023-05-03T07:30:28;97269.78;;;15.13;nan
34328;BME280;20588;48.840;10.064;2023-05-03T07:32:54;97271.53;;;15.01;nan
34328;BME280;20588;48.840;10.064;2023-05-03T07:35:20;97267.78;;;14.79;nan
34328;BME280;20588;48.840;10.064;2023-05-03T07:37:48;97275.31;;;14.51;nan
34328;BME280;20588;48.840;10.064;2023-05-03T07:40:14;97262.66;;;13.93;nan
34328;BME280;20588;48.840;10.064;2023-05-03T07:42:40;97265.06;;;13.95;nan
34328;BME280;20588;48.840;10.064;2023-05-03T07:45:06;97258.88;;;13.96;nan
34328;BME280;20588;48.840;10.064;2023-05-03T07:47:33;97259.63;;;14.21;nan
34328;BME280;20588;48.840;10.064;2023-05-03T07:50:02;97260.97;;;14.30;nan
34328;BME280;20588;48.840;10.064;2023-05-03T07:52:34;97258.69;;;14.40;nan
34328;BME280;20588;48.840;10.064;2023-05-03T07:55:00;97258.09;;;14.38;nan
34328;BME280;20588;48.840;10.064;2023-05-03T07:57:28;97253.28;;;14.23;nan
34328;BME280;20588;48.840;10.064;2023-05-03T07:59:54;97258.47;;;14.17;nan
34328;BME280;20588;48.840;10.064;2023-05-03T08:02:20;97261.84;;;13.99;nan
34328;BME280;20588;48.840;10.064;2023-05-03T08:04:47;97255.94;;;13.86;nan
34328;BME280;20588;48.840;10.064;2023-05-03T08:07:13;97255.16;;;14.10;nan
34328;BME280;20588;48.840;10.064;2023-05-03T08:09:40;97255.94;;;13.86;nan
34328;BME280;20588;48.840;10.064;2023-05-03T08:12:06;97259.25;;;13.99;nan
34328;BME280;20588;48.840;10.064;2023-05-03T08:14:33;97256.78;;;14.29;nan
34328;BME280;20588;48.840;10.064;2023-05-03T08:16:59;97261.69;;;14.73;nan
34328;BME280;20588;48.840;10.064;2023-05-03T08:19:26;97253.50;;;15.06;nan
34328;BME280;20588;48.840;10.064;2023-05-03T08:21:52;97254.91;;;15.20;nan
34328;BME280;20588;48.840;10.064;2023-05-03T08:24:19;97254.94;;;15.61;nan
34328;BME280;20588;48.840;10.064;2023-05-03T08:26:45;97252.94;;;15.86;nan
34328;BME280;20588;48.840;10.064;2023-05-03T08:29:13;97260.31;;;16.12;nan
34328;BME280;20588;48.840;10.064;2023-05-03T08:31:39;97256.13;;;16.22;nan
34328;BME280;20588;48.840;10.064;2023-05-03T08:34:06;97261.47;;;16.90;nan
34328;BME280;20588;48.840;10.064;2023-05-03T08:36:32;97259.06;;;17.00;nan
34328;BME280;20588;48.840;10.064;2023-05-03T08:38:59;97259.78;;;17.68;nan
34328;BME280;20588;48.840;10.064;2023-05-03T08:41:30;97265.81;;;18.57;nan
34328;BME280;20588;48.840;10.064;2023-05-03T08:43:57;97266.69;;;19.10;nan
34328;BME280;20588;48.840;10.064;2023-05-03T08:46:24;97258.84;;;18.84;nan
34328;BME280;20588;48.840;10.064;2023-05-03T08:48:53;97264.16;;;18.94;nan
34328;BME280;20588;48.840;10.064;2023-05-03T08:51:22;97255.56;;;18.17;nan
34328;BME280;20588;48.840;10.064;2023-05-03T08:53:48;97259.78;;;18.02;nan
34328;BME280;20588;48.840;10.064;2023-05-03T08:56:26;97260.38;;;19.06;nan
34328;BME280;20588;48.840;10.064;2023-05-03T08:58:54;97270.88;;;18.68;nan
34328;BME280;20588;48.840;10.064;2023-05-03T09:01:20;97267.50;;;18.89;nan
34328;BME280;20588;48.840;10.064;2023-05-03T09:03:50;97263.59;;;19.13;nan
34328;BME280;20588;48.840;10.064;2023-05-03T09:06:21;97265.66;;;19.64;nan
34328;BME280;20588;48.840;10.064;2023-05-03T09:08:47;97274.06;;;20.35;nan
34328;BME280;20588;48.840;10.064;2023-05-03T09:13:47;97274.38;;;19.75;nan
34328;BME280;20588;48.840;10.064;2023-05-03T09:16:25;97277.91;;;20.64;nan
34328;BME280;20588;48.840;10.064;2023-05-03T09:19:02;97277.91;;;21.40;nan
34328;BME280;20588;48.840;10.064;2023-05-03T09:21:29;97269.88;;;21.92;nan
34328;BME280;20588;48.840;10.064;2023-05-03T09:23:58;97272.47;;;22.27;nan
34328;BME280;20588;48.840;10.064;2023-05-03T09:26:29;97273.97;;;22.58;nan
34328;BME280;20588;48.840;10.064;2023-05-03T09:28:56;97270.63;;;23.11;nan
34328;BME280;20588;48.840;10.064;2023-05-03T09:31:22;97267.47;;;23.92;nan
34328;BME280;20588;48.840;10.064;2023-05-03T09:33:48;97270.53;;;24.09;nan
34328;BME280;20588;48.840;10.064;2023-05-03T09:36:14;97270.91;;;23.97;nan
34328;BME280;20588;48.840;10.064;2023-05-03T09:38:40;97268.53;;;24.76;nan
34328;BME280;20588;48.840;10.064;2023-05-03T09:41:07;97262.78;;;25.54;nan
34328;BME280;20588;48.840;10.064;2023-05-03T09:43:33;97256.06;;;25.98;nan
34328;BME280;20588;48.840;10.064;2023-05-03T09:46:08;97261.19;;;25.90;nan
34328;BME280;20588;48.840;10.064;2023-05-03T09:48:36;97261.75;;;25.36;nan
34328;BME280;20588;48.840;10.064;2023-05-03T09:51:03;97269.31;;;24.77;nan
34328;BME280;20588;48.840;10.064;2023-05-03T09:53:31;97260.94;;;24.46;nan
34328;BME280;20588;48.840;10.064;2023-05-03T09:56:01;97265.53;;;24.36;nan
34328;BME280;20588;48.840;10.064;2023-05-03T09:58:28;97267.19;;;24.27;nan
34328;BME280;20588;48.840;10.064;2023-05-03T10:00:56;97263.81;;;24.50;nan
34328;BME280;20588;48.840;10.064;2023-05-03T10:03:41;97266.28;;;24.41;nan
34328;BME280;20588;48.840;10.064;2023-05-03T10:06:35;97262.81;;;24.46;nan
34328;BME280;20588;48.840;10.064;2023-05-03T10:09:12;97262.28;;;24.72;nan
34328;BME280;20588;48.840;10.064;2023-05-03T10:11:45;97249.88;;;25.52;nan
34328;BME280;20588;48.840;10.064;2023-05-03T10:14:13;97249.97;;;26.57;nan
34328;BME280;20588;48.840;10.064;2023-05-03T10:16:43;97248.81;;;26.77;nan
34328;BME280;20588;48.840;10.064;2023-05-03T10:22:08;97235.97;;;25.84;nan
34328;BME280;20588;48.840;10.064;2023-05-03T10:25:05;97232.84;;;25.95;nan
34328;BME280;20588;48.840;10.064;2023-05-03T10:27:21;97236.31;;;24.61;nan
34328;BME280;20588;48.840;10.064;2023-05-03T10:29:49;97232.88;;;24.13;nan
34328;BME280;20588;48.840;10.064;2023-05-03T10:32:32;97234.44;;;23.52;nan
34328;BME280;20588;48.840;10.064;2023-05-03T10:35:01;97229.75;;;24.35;nan
34328;BME280;20588;48.840;10.064;2023-05-03T10:37:28;97222.94;;;25.18;nan
34328;BME280;20588;48.840;10.064;2023-05-03T10:39:54;97215.59;;;24.97;nan
34328;BME280;20588;48.840;10.064;2023-05-03T10:42:23;97213.19;;;26.74;nan
34328;BME280;20588;48.840;10.064;2023-05-03T10:44:50;97222.06;;;28.07;nan
34328;BME280;20588;48.840;10.064;2023-05-03T10:47:18;97210.25;;;29.08;nan
34328;BME280;20588;48.840;10.064;2023-05-03T10:49:45;97209.88;;;30.04;nan
34328;BME280;20588;48.840;10.064;2023-05-03T10:52:50;97205.41;;;30.71;nan
34328;BME280;20588;48.840;10.064;2023-05-03T10:55:20;97210.06;;;30.45;nan
34328;BME280;20588;48.840;10.064;2023-05-03T10:57:47;97204.22;;;30.22;nan
34328;BME280;20588;48.840;10.064;2023-05-03T11:05:49;97206.91;;;27.33;nan
34328;BME280;20588;48.840;10.064;2023-05-03T11:08:21;97202.03;;;27.70;nan
34328;BME280;20588;48.840;10.064;2023-05-03T11:10:49;97210.19;;;27.96;nan
34328;BME280;20588;48.840;10.064;2023-05-03T11:13:16;97196.91;;;27.08;nan
34328;BME280;20588;48.840;10.064;2023-05-03T11:15:42;97200.28;;;26.18;nan
34328;BME280;20588;48.840;10.064;2023-05-03T11:18:09;97195.69;;;26.65;nan
34328;BME280;20588;48.840;10.064;2023-05-03T11:20:38;97198.25;;;27.19;nan
34328;BME280;20588;48.840;10.064;2023-05-03T11:23:05;97194.38;;;26.89;nan
34328;BME280;20588;48.840;10.064;2023-05-03T11:25:34;97200.28;;;26.59;nan
34328;BME280;20588;48.840;10.064;2023-05-03T11:28:01;97200.88;;;26.42;nan
34328;BME280;20588;48.840;10.064;2023-05-03T11:30:28;97186.66;;;26.11;nan
34328;BME280;20588;48.840;10.064;2023-05-03T11:32:55;97187.28;;;25.44;nan
34328;BME280;20588;48.840;10.064;2023-05-03T11:35:21;97189.88;;;24.70;nan
34328;BME280;20588;48.840;10.064;2023-05-03T11:37:52;97195.03;;;24.09;nan
34328;BME280;20588;48.840;10.064;2023-05-03T11:40:19;97194.22;;;23.52;nan
34328;BME280;20588;48.840;10.064;2023-05-03T11:42:56;97189.72;;;23.13;nan
34328;BME280;20588;48.840;10.064;2023-05-03T11:45:24;97194.53;;;22.96;nan
34328;BME280;20588;48.840;10.064;2023-05-03T11:47:51;97186.38;;;22.39;nan
34328;BME280;20588;48.840;10.064;2023-05-03T11:50:22;97187.28;;;22.10;nan
34328;BME280;20588;48.840;10.064;2023-05-03T11:52:51;97176.25;;;22.13;nan
34328;BME280;20588;48.840;10.064;2023-05-03T11:55:17;97182.78;;;22.10;nan
34328;BME280;20588;48.840;10.064;2023-05-03T11:57:44;97178.13;;;21.62;nan
34328;BME280;20588;48.840;10.064;2023-05-03T12:00:12;97177.03;;;21.13;nan
34328;BME280;20588;48.840;10.064;2023-05-03T12:02:43;97170.50;;;21.05;nan
34328;BME280;20588;48.840;10.064;2023-05-03T12:05:09;97173.91;;;21.21;nan
34328;BME280;20588;48.840;10.064;2023-05-03T12:07:36;97166.31;;;21.70;nan
34328;BME280;20588;48.840;10.064;2023-05-03T12:10:16;97161.88;;;21.70;nan
34328;BME280;20588;48.840;10.064;2023-05-03T12:12:56;97168.03;;;22.34;nan
34328;BME280;20588;48.840;10.064;2023-05-03T12:15:29;97161.59;;;22.07;nan
34328;BME280;20588;48.840;10.064;2023-05-03T12:18:00;97172.06;;;22.07;nan
34328;BME280;20588;48.840;10.064;2023-05-03T12:20:28;97164.50;;;21.60;nan
34328;BME280;20588;48.840;10.064;2023-05-03T12:23:03;97159.81;;;21.52;nan
34328;BME280;20588;48.840;10.064;2023-05-03T12:25:30;97152.97;;;21.71;nan
34328;BME280;20588;48.840;10.064;2023-05-03T12:27:59;97155.59;;;21.46;nan
34328;BME280;20588;48.840;10.064;2023-05-03T12:30:26;97147.94;;;22.00;nan
34328;BME280;20588;48.840;10.064;2023-05-03T12:32:52;97144.53;;;23.11;nan
34328;BME280;20588;48.840;10.064;2023-05-03T12:35:19;97138.50;;;23.50;nan
34328;BME280;20588;48.840;10.064;2023-05-03T12:37:46;97146.03;;;23.28;nan
34328;BME280;20588;48.840;10.064;2023-05-03T12:40:13;97143.38;;;22.89;nan
34328;BME280;20588;48.840;10.064;2023-05-03T12:42:39;97145.06;;;22.70;nan
34328;BME280;20588;48.840;10.064;2023-05-03T12:45:06;97135.56;;;22.84;nan
34328;BME280;20588;48.840;10.064;2023-05-03T12:47:33;97139.84;;;23.76;nan
34328;BME280;20588;48.840;10.064;2023-05-03T12:49:59;97137.88;;;24.57;nan
34328;BME280;20588;48.840;10.064;2023-05-03T12:52:27;97125.78;;;24.14;nan
34328;BME280;20588;48.840;10.064;2023-05-03T12:54:55;97123.72;;;24.11;nan
34328;BME280;20588;48.840;10.064;2023-05-03T12:57:21;97125.28;;;24.35;nan
34328;BME280;20588;48.840;10.064;2023-05-03T12:59:47;97124.13;;;24.65;nan
34328;BME280;20588;48.840;10.064;2023-05-03T13:02:18;97115.53;;;25.29;nan
34328;BME280;20588;48.840;10.064;2023-05-03T13:04:45;97110.41;;;25.51;nan
34328;BME280;20588;48.840;10.064;2023-05-03T13:07:11;97108.63;;;25.78;nan
34328;BME280;20588;48.840;10.064;2023-05-03T13:09:40;97105.59;;;24.89;nan
34328;BME280;20588;48.840;10.064;2023-05-03T13:12:06;97109.31;;;24.69;nan
34328;BME280;20588;48.840;10.064;2023-05-03T13:14:32;97101.69;;;24.86;nan
34328;BME280;20588;48.840;10.064;2023-05-03T13:16:59;97097.41;;;24.90;nan
34328;BME280;20588;48.840;10.064;2023-05-03T13:19:26;97104.31;;;25.05;nan
34328;BME280;20588;48.840;10.064;2023-05-03T13:21:53;97098.22;;;25.23;nan
34328;BME280;20588;48.840;10.064;2023-05-03T13:24:19;97098.22;;;25.41;nan
34328;BME280;20588;48.840;10.064;2023-05-03T13:26:45;97091.22;;;25.32;nan
34328;BME280;20588;48.840;10.064;2023-05-03T13:29:11;97097.34;;;25.46;nan
34328;BME280;20588;48.840;10.064;2023-05-03T13:31:38;97091.66;;;25.39;nan
34328;BME280;20588;48.840;10.064;2023-05-03T13:34:04;97090.69;;;25.48;nan
34328;BME280;20588;48.840;10.064;2023-05-03T13:36:31;97087.38;;;25.43;nan
34328;BME280;20588;48.840;10.064;2023-05-03T13:38:58;97076.84;;;25.43;nan
34328;BME280;20588;48.840;10.064;2023-05-03T13:41:24;97076.63;;;25.21;nan